createdAt,value
2022-07-30T00:01:35.688Z,60.62
2022-07-30T00:04:04.096Z,60.61
2022-07-30T00:06:32.634Z,60.88
2022-07-30T00:08:59.596Z,60.68
2022-07-30T00:11:28.011Z,60.91
2022-07-30T00:13:55.950Z,61.25
2022-07-30T00:16:23.434Z,62.02
2022-07-30T00:18:50.888Z,61.85
2022-07-30T00:21:31.489Z,62.07
2022-07-30T00:24:04.908Z,61.68
2022-07-30T00:26:33.093Z,62.13
2022-07-30T00:29:00.245Z,61.99
2022-07-30T00:31:28.932Z,62.04
2022-07-30T00:33:56.823Z,61.79
2022-07-30T00:36:24.462Z,62.21
2022-07-30T00:38:52.252Z,61.78
2022-07-30T00:41:19.435Z,61.99
2022-07-30T00:43:46.684Z,61.88
2022-07-30T00:46:14.981Z,61.92
2022-07-30T00:48:42.979Z,62.04
2022-07-30T00:51:10.588Z,62.33
2022-07-30T00:53:38.470Z,62.32
2022-07-30T00:56:06.845Z,61.93
2022-07-30T00:58:34.076Z,62.13
2022-07-30T01:01:01.375Z,62.24
2022-07-30T01:03:28.848Z,62.42
2022-07-30T01:05:56.980Z,62.36
2022-07-30T01:08:24.035Z,62.56
2022-07-30T01:10:52.331Z,62.50
2022-07-30T01:13:19.663Z,62.05
2022-07-30T01:15:47.851Z,62.81
2022-07-30T01:18:16.193Z,62.58
2022-07-30T01:21:03.324Z,62.25
2022-07-30T01:23:43.282Z,62.60
2022-07-30T01:26:17.658Z,62.34
2022-07-30T01:28:55.098Z,62.30
2022-07-30T01:31:26.389Z,62.51
2022-07-30T01:33:57.122Z,62.91
2022-07-30T01:36:27.782Z,63.08
2022-07-30T01:38:55.746Z,63.03
2022-07-30T01:41:24.399Z,62.85
2022-07-30T01:43:52.669Z,63.42
2022-07-30T01:46:23.099Z,63.71
2022-07-30T01:48:51.828Z,63.49
2022-07-30T01:51:20.182Z,63.59
2022-07-30T01:53:53.557Z,63.26
2022-07-30T01:56:25.167Z,63.21
2022-07-30T01:58:56.019Z,63.34
2022-07-30T02:01:28.035Z,63.14
2022-07-30T02:04:03.280Z,63.44
2022-07-30T02:07:19.948Z,62.99
2022-07-30T02:10:02.665Z,63.52
2022-07-30T02:12:36.653Z,63.69
2022-07-30T02:15:37.945Z,63.06
2022-07-30T02:18:17.561Z,63.18
2022-07-30T02:21:02.562Z,63.37
2022-07-30T02:23:44.873Z,63.36
2022-07-30T02:26:21.872Z,63.25
2022-07-30T02:28:55.848Z,63.88
2022-07-30T02:31:27.753Z,63.82
2022-07-30T02:34:01.344Z,63.77
2022-07-30T02:36:30.943Z,64.26
2022-07-30T02:38:59.377Z,64.25
2022-07-30T02:41:29.695Z,64.04
2022-07-30T02:43:58.131Z,64.68
2022-07-30T02:49:22.493Z,64.79
2022-07-30T02:51:52.015Z,65.16
2022-07-30T02:54:20.405Z,65.45
2022-07-30T02:56:50.297Z,65.76
2022-07-30T02:59:20.537Z,66.17
2022-07-30T03:01:49.371Z,65.71
2022-07-30T03:04:20.769Z,66.31
2022-07-30T03:06:50.004Z,65.89
2022-07-30T03:09:18.445Z,66.36
2022-07-30T03:11:48.511Z,66.31
2022-07-30T03:14:17.059Z,66.77
2022-07-30T03:16:49.141Z,67.10
2022-07-30T03:19:20.904Z,67.12
2022-07-30T03:21:50.289Z,66.81
2022-07-30T03:24:20.045Z,66.69
2022-07-30T03:26:48.444Z,67.47
2022-07-30T03:29:18.301Z,67.46
2022-07-30T03:31:50.251Z,67.47
2022-07-30T03:34:19.267Z,67.53
2022-07-30T03:36:47.264Z,67.37
2022-07-30T03:39:15.390Z,68.04
2022-07-30T03:41:43.384Z,67.73
2022-07-30T03:44:15.345Z,68.12
2022-07-30T03:46:43.417Z,67.56
2022-07-30T03:49:11.987Z,68.03
2022-07-30T03:51:43.478Z,67.60
2022-07-30T03:54:13.685Z,67.87
2022-07-30T03:56:42.104Z,68.06
2022-07-30T03:59:18.246Z,68.12
2022-07-30T04:01:45.965Z,68.28
2022-07-30T04:04:21.505Z,67.93
2022-07-30T04:06:50.647Z,67.98
2022-07-30T04:09:20.477Z,67.83
2022-07-30T04:11:49.452Z,67.95
2022-07-30T04:14:21.874Z,68.21
2022-07-30T04:16:59.399Z,68.00
2022-07-30T04:19:33.045Z,68.21
2022-07-30T04:22:02.269Z,68.38
2022-07-30T04:24:32.529Z,68.82
2022-07-30T04:27:02.335Z,68.55
2022-07-30T04:29:30.952Z,68.63
2022-07-30T04:31:58.602Z,68.85
2022-07-30T04:34:28.885Z,68.94
2022-07-30T04:36:57.477Z,69.02
2022-07-30T04:39:25.517Z,68.75
2022-07-30T04:41:52.749Z,69.20
2022-07-30T04:44:40.155Z,69.05
2022-07-30T04:47:27.567Z,69.32
2022-07-30T04:50:11.901Z,69.04
2022-07-30T04:52:40.065Z,69.32
2022-07-30T04:55:10.277Z,68.86
2022-07-30T04:57:40.496Z,69.57
2022-07-30T05:00:09.747Z,69.54
2022-07-30T05:02:42.182Z,69.19
2022-07-30T05:05:12.785Z,69.53
2022-07-30T05:07:40.196Z,69.14
2022-07-30T05:10:11.565Z,69.52
2022-07-30T05:12:40.504Z,69.59
2022-07-30T05:15:10.456Z,69.71
2022-07-30T05:17:38.569Z,69.14
2022-07-30T05:20:09.672Z,69.37
2022-07-30T05:22:55.339Z,70.00
2022-07-30T05:25:24.171Z,70.29
2022-07-30T05:27:54.857Z,69.60
2022-07-30T05:30:27.586Z,69.70
2022-07-30T05:32:57.593Z,70.04
2022-07-30T05:35:25.618Z,69.96
2022-07-30T05:37:54.294Z,70.15
2022-07-30T05:40:23.556Z,69.78
2022-07-30T05:43:06.820Z,70.31
2022-07-30T05:45:34.594Z,70.48
2022-07-30T05:48:01.987Z,70.11
2022-07-30T05:50:30.254Z,70.62
2022-07-30T05:52:58.768Z,71.10
2022-07-30T05:55:51.974Z,71.12
2022-07-30T05:58:38.007Z,70.65
2022-07-30T06:01:06.040Z,71.02
2022-07-30T06:03:35.106Z,71.24
2022-07-30T06:06:37.684Z,71.42
2022-07-30T06:09:05.403Z,71.21
2022-07-30T06:11:32.742Z,71.13
2022-07-30T06:14:01.061Z,71.48
2022-07-30T06:16:28.706Z,71.67
2022-07-30T06:18:56.765Z,70.89
2022-07-30T06:22:06.242Z,71.49
2022-07-30T06:24:25.669Z,70.91
2022-07-30T06:27:06.365Z,70.86
2022-07-30T06:29:33.540Z,71.61
2022-07-30T06:32:01.541Z,70.86
2022-07-30T06:34:28.873Z,71.70
2022-07-30T06:36:56.581Z,71.29
2022-07-30T06:39:56.386Z,71.59
2022-07-30T06:42:27.513Z,71.04
2022-07-30T06:45:20.633Z,71.53
2022-07-30T06:48:07.970Z,71.56
2022-07-30T06:50:37.155Z,71.00
2022-07-30T06:53:04.480Z,71.42
2022-07-30T06:55:53.058Z,71.63
2022-07-30T06:58:28.491Z,71.29
2022-07-30T07:01:23.514Z,71.59
2022-07-30T07:03:51.449Z,71.49
2022-07-30T07:06:18.790Z,71.34
2022-07-30T07:08:46.029Z,71.65
2022-07-30T07:11:17.040Z,71.70
2022-07-30T07:13:53.574Z,71.74
2022-07-30T07:16:31.295Z,71.76
2022-07-30T07:19:02.791Z,71.74
2022-07-30T07:21:30.287Z,72.49
2022-07-30T07:24:00.265Z,71.75
2022-07-30T07:26:52.133Z,71.84
2022-07-30T07:29:20.576Z,71.75
2022-07-30T07:32:05.242Z,71.62
2022-07-30T07:34:35.786Z,71.61
2022-07-30T07:37:03.325Z,71.74
2022-07-30T07:39:30.757Z,71.92
2022-07-30T07:41:59.081Z,71.77
2022-07-30T07:44:29.584Z,72.06
2022-07-30T07:46:56.662Z,71.82
2022-07-30T07:49:27.710Z,72.06
2022-07-30T07:51:55.004Z,71.86
2022-07-30T07:54:23.919Z,72.15
2022-07-30T07:56:56.779Z,72.12
2022-07-30T07:59:40.732Z,71.90
2022-07-30T08:02:24.518Z,72.30
2022-07-30T08:05:05.724Z,72.41
2022-07-30T08:07:53.012Z,72.10
2022-07-30T08:10:49.224Z,71.88
2022-07-30T08:13:51.644Z,72.09
2022-07-30T08:16:35.487Z,72.59
2022-07-30T08:19:27.616Z,72.41
2022-07-30T08:22:15.206Z,72.03
2022-07-30T08:24:42.404Z,71.93
2022-07-30T08:27:09.703Z,70.93
2022-07-30T08:29:37.661Z,71.31
2022-07-30T08:32:06.116Z,71.51
2022-07-30T08:34:36.606Z,71.81
2022-07-30T08:37:04.496Z,71.33
2022-07-30T08:39:31.925Z,71.22
2022-07-30T08:42:01.565Z,70.62
2022-07-30T08:44:31.303Z,69.62
2022-07-30T08:47:00.270Z,70.09
2022-07-30T08:49:42.064Z,69.72
2022-07-30T08:52:11.234Z,69.16
2022-07-30T08:54:42.374Z,69.52
2022-07-30T08:57:12.536Z,69.96
2022-07-30T09:00:00.080Z,70.42
2022-07-30T09:02:31.778Z,69.48
2022-07-30T09:05:05.280Z,69.56
2022-07-30T09:07:34.546Z,69.50
2022-07-30T09:10:08.483Z,69.25
2022-07-30T09:12:44.863Z,69.20
2022-07-30T09:15:17.272Z,68.09
2022-07-30T09:18:02.806Z,68.09
2022-07-30T09:20:37.520Z,67.32
2022-07-30T09:23:08.329Z,67.23
2022-07-30T09:26:01.063Z,67.55
2022-07-30T09:28:46.820Z,66.95
2022-07-30T09:31:14.488Z,66.65
2022-07-30T09:34:31.584Z,65.82
2022-07-30T09:37:08.936Z,65.73
2022-07-30T09:39:56.604Z,65.59
2022-07-30T09:43:11.069Z,64.49
2022-07-30T09:45:57.498Z,63.29
2022-07-30T09:48:28.055Z,62.97
2022-07-30T09:50:57.662Z,62.42
2022-07-30T09:53:25.259Z,62.59
2022-07-30T09:55:52.947Z,62.81
2022-07-30T09:58:27.192Z,62.57
2022-07-30T10:00:59.688Z,62.87
2022-07-30T10:03:50.473Z,63.77
2022-07-30T10:06:38.354Z,63.82
2022-07-30T10:09:28.396Z,63.87
2022-07-30T10:11:58.514Z,63.53
2022-07-30T10:14:33.588Z,63.02
2022-07-30T10:17:03.943Z,62.57
2022-07-30T10:19:40.078Z,61.65
2022-07-30T10:22:28.888Z,61.16
2022-07-30T10:25:23.015Z,61.19
2022-07-30T10:28:38.443Z,61.41
2022-07-30T10:31:46.423Z,61.39
2022-07-30T10:33:55.831Z,61.30
2022-07-30T10:36:24.773Z,59.57
2022-07-30T10:38:53.119Z,60.17
2022-07-30T10:42:28.413Z,60.81
2022-07-30T10:45:19.739Z,60.15
2022-07-30T10:47:48.761Z,59.88
2022-07-30T10:50:26.503Z,59.90
2022-07-30T10:52:57.436Z,59.87
2022-07-30T10:55:32.967Z,60.09
2022-07-30T10:58:08.476Z,59.67
2022-07-30T11:00:53.827Z,60.30
2022-07-30T11:03:40.004Z,58.70
2022-07-30T11:06:29.101Z,59.07
2022-07-30T11:08:57.289Z,59.90
2022-07-30T11:12:01.677Z,59.78
2022-07-30T11:14:14.770Z,59.29
2022-07-30T11:16:42.244Z,59.36
2022-07-30T11:19:56.838Z,58.79
2022-07-30T11:22:32.933Z,57.16
2022-07-30T11:25:00.357Z,53.98
2022-07-30T11:27:50.484Z,53.48
2022-07-30T11:30:18.166Z,54.61
2022-07-30T11:32:51.302Z,54.21
2022-07-30T11:35:23.143Z,55.12
2022-07-30T11:38:07.010Z,54.83
2022-07-30T11:40:59.265Z,55.15
2022-07-30T11:43:36.659Z,54.64
2022-07-30T11:46:16.410Z,54.16
2022-07-30T11:49:02.809Z,53.22
2022-07-30T11:51:45.496Z,54.21
2022-07-30T11:54:13.150Z,54.18
2022-07-30T11:56:54.696Z,53.33
2022-07-30T11:59:22.238Z,52.67
2022-07-30T12:01:56.954Z,53.67
2022-07-30T12:04:24.597Z,54.46
2022-07-30T12:06:51.788Z,54.44
2022-07-30T12:09:27.447Z,55.08
2022-07-30T12:11:55.863Z,55.44
2022-07-30T12:14:23.225Z,56.27
2022-07-30T12:16:53.142Z,56.20
2022-07-30T12:19:20.484Z,56.46
2022-07-30T12:21:52.745Z,56.81
2022-07-30T12:24:26.826Z,57.91
2022-07-30T12:27:06.412Z,58.12
2022-07-30T12:29:35.341Z,58.68
2022-07-30T12:32:02.988Z,58.60
2022-07-30T12:34:30.360Z,57.99
2022-07-30T12:37:10.715Z,57.41
2022-07-30T12:39:40.550Z,57.46
2022-07-30T12:42:07.817Z,57.26
2022-07-30T12:44:42.399Z,55.83
2022-07-30T12:47:27.870Z,54.13
2022-07-30T12:50:01.325Z,53.12
2022-07-30T12:52:34.743Z,53.83
2022-07-30T12:55:12.401Z,52.73
2022-07-30T12:57:53.609Z,52.22
2022-07-30T13:00:22.416Z,52.18
2022-07-30T13:02:49.732Z,50.87
2022-07-30T13:05:17.153Z,51.16
2022-07-30T13:08:00.842Z,51.67
2022-07-30T13:10:31.183Z,54.11
2022-07-30T13:12:59.838Z,53.14
2022-07-30T13:15:27.035Z,52.97
2022-07-30T13:17:54.507Z,49.56
2022-07-30T13:20:22.013Z,47.83
2022-07-30T13:22:49.228Z,46.66
2022-07-30T13:25:16.290Z,46.88
2022-07-30T13:27:43.748Z,47.73
2022-07-30T13:30:11.569Z,47.29
2022-07-30T13:32:39.077Z,48.06
2022-07-30T13:35:06.580Z,47.82
2022-07-30T13:37:37.843Z,47.63
2022-07-30T13:40:06.410Z,47.81
2022-07-30T13:42:33.857Z,47.31
2022-07-30T13:45:01.369Z,47.40
2022-07-30T13:47:29.077Z,47.88
2022-07-30T13:49:56.660Z,49.01
2022-07-30T13:52:23.928Z,49.73
2022-07-30T13:54:52.595Z,49.08
2022-07-30T13:57:20.301Z,49.31
2022-07-30T13:59:47.544Z,49.42
2022-07-30T14:02:16.858Z,48.90
2022-07-30T14:04:44.189Z,47.72
2022-07-30T14:07:13.208Z,45.38
2022-07-30T14:09:44.798Z,44.28
2022-07-30T14:12:15.330Z,43.39
2022-07-30T14:14:42.386Z,42.39
2022-07-30T14:17:09.609Z,41.21
2022-07-30T14:19:36.876Z,38.79
2022-07-30T14:22:03.932Z,40.29
2022-07-30T14:24:30.969Z,40.32
2022-07-30T14:26:58.539Z,40.76
2022-07-30T14:29:27.465Z,42.48
2022-07-30T14:31:55.496Z,42.91
2022-07-30T14:34:23.408Z,42.88
2022-07-30T14:36:51.958Z,41.96
2022-07-30T14:39:20.368Z,40.99
2022-07-30T14:41:47.438Z,39.02
2022-07-30T14:44:16.715Z,39.59
2022-07-30T14:46:52.307Z,39.25
2022-07-30T14:49:21.650Z,38.33
2022-07-30T14:51:50.231Z,38.66
2022-07-30T14:54:17.604Z,35.95
2022-07-30T14:56:44.893Z,35.90
2022-07-30T14:59:12.492Z,36.38
2022-07-30T15:01:39.678Z,36.64
2022-07-30T15:04:09.453Z,36.72
2022-07-30T15:06:37.822Z,37.21
2022-07-30T15:09:05.361Z,38.21
2022-07-30T15:11:44.905Z,38.70
2022-07-30T15:14:21.123Z,38.84
2022-07-30T15:16:48.623Z,39.31
2022-07-30T15:19:15.735Z,39.73
2022-07-30T15:21:44.732Z,40.22
2022-07-30T15:24:11.858Z,40.67
2022-07-30T15:26:39.359Z,41.37
2022-07-30T15:29:10.390Z,41.55
2022-07-30T15:31:40.230Z,41.20
2022-07-30T15:34:10.847Z,41.74
2022-07-30T15:36:39.340Z,42.26
2022-07-30T15:39:06.673Z,42.42
2022-07-30T15:41:34.348Z,42.99
2022-07-30T15:44:01.846Z,42.89
2022-07-30T15:46:29.082Z,43.00
2022-07-30T15:48:56.704Z,43.89
2022-07-30T15:51:24.082Z,44.28
2022-07-30T15:53:51.381Z,44.75
2022-07-30T15:56:18.948Z,43.90
2022-07-30T15:58:46.061Z,42.78
2022-07-30T16:01:13.433Z,41.82
2022-07-30T16:03:40.770Z,40.59
2022-07-30T16:06:07.878Z,39.68
2022-07-30T16:08:35.173Z,39.96
2022-07-30T16:11:04.453Z,39.12
2022-07-30T16:13:32.224Z,39.20
2022-07-30T16:15:59.450Z,38.14
2022-07-30T16:18:26.748Z,37.80
2022-07-30T16:20:54.684Z,37.80
2022-07-30T16:23:22.029Z,38.38
2022-07-30T16:25:49.085Z,38.53
2022-07-30T16:28:16.396Z,38.88
2022-07-30T16:30:50.870Z,39.92
2022-07-30T16:33:20.377Z,40.58
2022-07-30T16:35:49.353Z,41.03
2022-07-30T16:38:21.036Z,41.46
2022-07-30T16:40:48.007Z,41.57
2022-07-30T16:43:16.435Z,42.00
2022-07-30T16:45:48.763Z,42.93
2022-07-30T16:48:16.095Z,42.96
2022-07-30T16:50:43.321Z,43.67
2022-07-30T16:53:14.100Z,43.90
2022-07-30T16:55:45.522Z,44.23
2022-07-30T16:58:13.158Z,44.54
2022-07-30T17:00:41.345Z,44.71
2022-07-30T17:03:09.407Z,45.04
2022-07-30T17:05:45.239Z,45.59
2022-07-30T17:08:13.800Z,45.27
2022-07-30T17:10:41.499Z,45.15
2022-07-30T17:13:09.400Z,45.01
2022-07-30T17:15:36.774Z,45.01
2022-07-30T17:18:04.321Z,45.17
2022-07-30T17:20:32.398Z,45.07
2022-07-30T17:22:59.987Z,45.26
2022-07-30T17:25:27.767Z,45.55
2022-07-30T17:27:56.772Z,45.93
2022-07-30T17:30:24.925Z,46.07
2022-07-30T17:32:52.203Z,46.41
2022-07-30T17:35:20.761Z,46.25
2022-07-30T17:37:48.010Z,46.09
2022-07-30T17:40:29.820Z,46.17
2022-07-30T17:43:07.035Z,46.21
2022-07-30T17:45:36.029Z,46.46
2022-07-30T17:48:05.199Z,46.42
2022-07-30T17:50:33.790Z,47.05
2022-07-30T17:53:03.452Z,46.98
2022-07-30T17:55:34.848Z,47.10
2022-07-30T17:58:05.653Z,47.50
2022-07-30T18:00:35.373Z,48.37
2022-07-30T18:03:03.898Z,47.84
2022-07-30T18:05:32.024Z,48.15
2022-07-30T18:07:59.027Z,48.43
2022-07-30T18:10:26.166Z,47.98
2022-07-30T18:12:53.501Z,48.21
2022-07-30T18:15:20.961Z,48.22
2022-07-30T18:17:48.214Z,48.60
2022-07-30T18:20:15.556Z,48.56
2022-07-30T18:22:43.460Z,48.62
2022-07-30T18:25:19.138Z,48.98
2022-07-30T18:27:47.926Z,49.31
2022-07-30T18:30:15.699Z,49.24
2022-07-30T18:32:43.693Z,48.71
2022-07-30T18:35:14.440Z,49.20
2022-07-30T18:37:47.224Z,49.10
2022-07-30T18:40:20.618Z,49.19
2022-07-30T18:42:50.797Z,49.14
2022-07-30T18:45:18.161Z,48.97
2022-07-30T18:47:46.427Z,49.02
2022-07-30T18:50:15.913Z,49.47
2022-07-30T18:52:43.333Z,50.10
2022-07-30T18:55:12.503Z,49.73
2022-07-30T18:57:41.349Z,50.12
2022-07-30T19:00:35.044Z,49.92
2022-07-30T19:03:00.813Z,50.25
2022-07-30T19:05:28.548Z,50.53
2022-07-30T19:07:58.418Z,50.60
2022-07-30T19:10:27.532Z,50.22
2022-07-30T19:12:56.775Z,50.91
2022-07-30T19:15:24.702Z,50.37
2022-07-30T19:17:53.076Z,50.86
2022-07-30T19:20:21.096Z,50.97
2022-07-30T19:22:48.337Z,50.76
2022-07-30T19:25:18.217Z,51.03
2022-07-30T19:27:45.778Z,50.89
2022-07-30T19:30:13.412Z,51.80
2022-07-30T19:32:40.633Z,52.37
2022-07-30T19:35:14.521Z,52.21
2022-07-30T19:37:41.761Z,52.34
2022-07-30T19:40:09.827Z,51.85
2022-07-30T19:42:41.163Z,51.81
2022-07-30T19:45:12.152Z,52.31
2022-07-30T19:47:42.577Z,52.24
2022-07-30T19:50:11.751Z,52.20
2022-07-30T19:52:40.059Z,52.94
2022-07-30T19:55:31.036Z,52.57
2022-07-30T19:58:16.047Z,53.01
2022-07-30T20:00:49.456Z,53.02
2022-07-30T20:03:25.684Z,53.43
2022-07-30T20:05:57.616Z,53.61
2022-07-30T20:08:27.817Z,53.47
2022-07-30T20:10:57.932Z,53.41
2022-07-30T20:13:44.190Z,54.52
2022-07-30T20:16:17.561Z,54.30
2022-07-30T20:21:56.889Z,54.41
2022-07-30T20:24:21.082Z,54.01
2022-07-30T20:26:48.187Z,54.06
2022-07-30T20:32:03.461Z,55.15
2022-07-30T20:34:30.883Z,54.55
2022-07-30T20:37:13.895Z,54.45
2022-07-30T20:39:46.897Z,54.91
2022-07-30T20:42:16.169Z,55.18
2022-07-30T20:44:50.606Z,55.21
2022-07-30T20:47:34.937Z,55.81
2022-07-30T20:50:14.805Z,56.30
2022-07-30T20:52:46.431Z,55.88
2022-07-30T20:55:16.768Z,56.50
2022-07-30T20:57:51.404Z,56.55
2022-07-30T21:00:28.362Z,56.07
2022-07-30T21:02:55.432Z,56.83
2022-07-30T21:05:22.716Z,56.42
2022-07-30T21:07:54.241Z,55.69
2022-07-30T21:10:23.565Z,56.50
2022-07-30T21:12:53.313Z,56.20
2022-07-30T21:15:26.243Z,56.12
2022-07-30T21:17:54.253Z,56.07
2022-07-30T21:20:27.401Z,56.38
2022-07-30T21:22:56.495Z,56.42
2022-07-30T21:25:32.409Z,56.54
2022-07-30T21:28:02.987Z,56.57
2022-07-30T21:30:31.170Z,56.02
2022-07-30T21:33:00.998Z,56.34
2022-07-30T21:35:31.840Z,56.67
2022-07-30T21:37:59.789Z,55.85
2022-07-30T21:40:27.691Z,56.03
2022-07-30T21:42:56.660Z,56.36
2022-07-30T21:45:54.941Z,56.82
2022-07-30T21:48:22.657Z,56.89
2022-07-30T21:50:52.885Z,56.50
2022-07-30T21:53:29.772Z,56.96
2022-07-30T21:56:08.329Z,57.27
2022-07-30T21:58:35.549Z,57.67
2022-07-30T22:01:17.768Z,57.30
2022-07-30T22:04:06.658Z,57.13
2022-07-30T22:06:41.672Z,57.57
2022-07-30T22:09:19.611Z,57.39
2022-07-30T22:12:06.211Z,57.80
2022-07-30T22:14:34.216Z,58.21
2022-07-30T22:17:04.448Z,57.84
2022-07-30T22:19:32.711Z,57.89
2022-07-30T22:22:05.170Z,57.99
2022-07-30T22:24:47.809Z,57.36
2022-07-30T22:27:15.361Z,58.29
2022-07-30T22:29:44.100Z,58.18
2022-07-30T22:32:12.440Z,58.59
2022-07-30T22:34:39.666Z,58.52
2022-07-30T22:37:09.171Z,58.12
2022-07-30T22:39:51.801Z,58.34
2022-07-30T22:42:24.378Z,58.11
2022-07-30T22:44:54.621Z,58.37
2022-07-30T22:47:50.767Z,58.38
2022-07-30T22:50:11.899Z,58.94
2022-07-30T22:52:52.446Z,59.41
2022-07-30T22:55:26.056Z,59.88
2022-07-30T22:57:53.825Z,59.42
2022-07-30T23:00:27.684Z,59.03
2022-07-30T23:02:57.277Z,59.18
2022-07-30T23:05:24.990Z,59.35
2022-07-30T23:07:52.326Z,60.12
2022-07-30T23:10:20.305Z,59.29
2022-07-30T23:12:17.297Z,54.36
2022-07-30T23:12:19.168Z,55.08
2022-07-30T23:12:51.238Z,60.10
2022-07-30T23:15:19.815Z,60.27
2022-07-30T23:17:47.709Z,60.54
2022-07-30T23:20:20.746Z,60.21
2022-07-30T23:22:48.918Z,59.92
2022-07-30T23:25:16.060Z,59.76
2022-07-30T23:27:43.274Z,61.90
2022-07-30T23:30:12.216Z,61.81
2022-07-30T23:32:42.357Z,62.03
2022-07-30T23:35:10.520Z,61.34
2022-07-30T23:37:47.801Z,61.74
2022-07-30T23:40:18.437Z,61.78
2022-07-30T23:42:46.115Z,61.38
2022-07-30T23:45:13.857Z,61.65
2022-07-30T23:48:00.827Z,61.97
2022-07-30T23:50:28.168Z,62.22
2022-07-30T23:52:55.770Z,62.25
2022-07-30T23:55:23.008Z,62.36
2022-07-30T23:57:50.050Z,62.01
